Kellyville, Oklahoma
Current Conditions -  °F | °C
As of 1:23 PM on Friday 21 Nov 2014 (Local Time) from KRVS Reporting Station
Overcast Overcast  
Wind Chill: 57°   Ceiling: 1500
Heat Index: 57°   Visibility: 10mi
Dew Point: 50°   Wind: 12mph
Humidity: 77%   Direction: 160°SSE
Pressure: 30.08"   Gusts: NA
Location:  35.94°N, 96.21°W
Report Text: KRVS 211923Z 16010KT 10SM OVC015 14/10 A3008 RMK AO2 T01390100
Loading
Personal Weather Stations






























Interactive Weather Map New forecast layout! Learn more

10-Day Weather Forecast

Advertisements
Track Severe Weather on mobile